首页
METAR-TAF:

METAR-TAF

机场 :

杰克逊维尔, 佛罗里达州, 美国

纬度: 30-20-10N, 经度: 081-30-53W, 海拔: 12米

当前天气观测

该预报发布于47分钟前的22:53 UTC
风速4节,风向西北
温度 27°C
湿度 74%
气压 1017 hPa
能見度: 16.1公里
天空无云

METAR: KCRG 152253Z 31004KT 10SM CLR 27/22 A3004 RMK AO2 LTG DSNT N SLP172 T02720222

时间: 19:40 (23:40 UTC)

预报

该预报发布于3小时和17分钟前的20:23 UTC
预报有效从15日的 20点(UTC)到 16日的 18点(UTC)
风速9节,风向南转南东
能見度: 10公里
散云层高于4000英尺, 积雨云.
多云层高于12000英尺
多云层高于25000英尺
附近有雷暴
短暂存在
从 15日的 21点(UTC)到 15日的 22点(UTC)
风速20节,风向多变,有时为30节阵风
能見度: 3.2公里
散云层高于2500英尺
多云层高于3500英尺, 积雨云.
多云层高于7000英尺
雷暴, 大雨, 轻雾
从 15日的 2200点(UTC)
风速7节,风向南转西南
能見度: 10公里
少量云层高于4000英尺
散云层高于12000英尺
多云层高于20000英尺
附近有阵雨
从 16日的 0100点(UTC)
风速7节,风向
能見度: 10公里
散云层高于5000英尺
多云层高于12000英尺
多云层高于25000英尺
附近有阵雨
从 16日的 0700点(UTC)
风速4节,风向南转西南
能見度: 10公里
少量云层高于5000英尺
散云层高于12000英尺
散云层高于25000英尺
从 16日的 1300点(UTC)
风速7节,风向西转西南
能見度: 10公里
少量云层高于2500英尺
少量云层高于25000英尺

TAF: KCRG 152023Z 1520/1618 15009KT P6SM VCTS SCT040CB BKN120 BKN250 TEMPO 1521/1522 VRB20G30KT 2SM +TSRA BR SCT025 BKN035CB BKN070 FM152200 21007KT P6SM VCSH FEW040 SCT120 BKN200 FM160100 18007KT P6SM VCSH SCT050 BKN120 BKN250 FM160700 21004KT P6SM FEW050 SCT120 SCT250 FM161300 24007KT P6SM FEW025 FEW250

超过4000个机场的气象观测和天气预报(METAR&TAF报告)。

可查询的气象台以黄色和红色小点在地图上表示。

将鼠标移到小点上方,可查看气象台名称。

然后点击查看天气观测和预报。

如需切换地图:点击带黑十字的绿色按钮放大地图;点击带横线的绿色按钮缩小地图;或者点击绿色箭头查看邻近地区的地图。


METAR-TAF: